Time,TemperatureF,DewpointF,PressureIn,WindDirection,WindDirectionDegrees,WindSpeedMPH,WindSpeedGustMPH,Humidity,HourlyPrecipIn,Conditions,Clouds,dailyrainin,SoftwareType,DateUTC
2013-08-03 18:02:00,71.0,54.0,29.80,WSW,254,8.0,9.0,55,-99.99,,,-99.99,,2013-08-04 01:02:00,
2013-08-03 18:12:00,73.0,52.0,29.77,West,260,3.0,11.0,48,-99.99,,,-99.99,,2013-08-04 01:12:00,
2013-08-03 18:22:00,73.0,54.0,29.77,West,260,1.0,5.0,51,-99.99,,,-99.99,,2013-08-04 01:22:00,
2013-08-03 18:32:00,73.0,54.0,29.77,West,260,1.0,5.0,51,-99.99,,,-99.99,,2013-08-04 01:32:00,
2013-08-03 18:42:00,75.0,53.0,29.76,WSW,257,0.0,5.0,47,-99.99,,,-99.99,,2013-08-04 01:42:00,
2013-08-03 18:53:00,74.0,53.0,29.75,NW,314,4.0,13.0,48,-99.99,,,-99.99,,2013-08-04 01:53:00,
2013-08-03 19:02:00,74.0,53.0,29.75,NW,314,4.0,13.0,48,-99.99,,,-99.99,,2013-08-04 02:02:00,
2013-08-03 19:12:00,72.0,55.0,29.75,NNW,336,11.0,13.0,56,-99.99,,,-99.99,,2013-08-04 02:12:00,
2013-08-03 19:22:00,70.0,55.0,29.76,NNW,335,5.0,12.0,59,-99.99,,,-99.99,,2013-08-04 02:22:00,
2013-08-03 19:32:00,70.0,55.0,29.76,NNW,335,5.0,12.0,59,-99.99,,,-99.99,,2013-08-04 02:32:00,
2013-08-03 19:42:00,70.0,55.0,29.77,NNW,329,3.0,12.0,59,-99.99,,,-99.99,,2013-08-04 02:42:00,
2013-08-03 19:52:00,70.0,55.0,29.76,NNW,329,3.0,6.0,60,-99.99,,,-99.99,,2013-08-04 02:52:00,
2013-08-03 20:01:00,70.0,55.0,29.76,NNW,329,3.0,6.0,60,-99.99,,,-99.99,,2013-08-04 03:01:00,
2013-08-03 20:11:00,70.0,55.0,29.76,NNW,329,2.0,6.0,59,-99.99,,,-99.99,,2013-08-04 03:11:00,
2013-08-03 20:22:00,69.0,57.0,29.76,NNW,329,0.0,2.0,65,-99.99,,,-99.99,,2013-08-04 03:22:00,
2013-08-03 20:32:00,69.0,57.0,29.76,NNW,329,0.0,2.0,65,-99.99,,,-99.99,,2013-08-04 03:32:00,
2013-08-03 20:42:00,68.0,57.0,29.76,NNW,329,0.0,2.0,68,-99.99,,,-99.99,,2013-08-04 03:42:00,
2013-08-03 20:52:00,66.0,57.0,29.75,NNW,329,1.0,3.0,72,-99.99,,,-99.99,,2013-08-04 03:52:00,
2013-08-03 21:02:00,66.0,57.0,29.75,NNW,329,1.0,3.0,72,-99.99,,,-99.99,,2013-08-04 04:02:00,
2013-08-03 21:11:00,65.0,57.0,29.75,NNW,329,0.0,3.0,75,-99.99,,,-99.99,,2013-08-04 04:11:00,
2013-08-03 21:22:00,64.0,55.0,29.77,NNW,329,0.0,4.0,72,-99.99,,,-99.99,,2013-08-04 04:22:00,
2013-08-03 21:32:00,64.0,55.0,29.77,NNW,329,0.0,4.0,72,-99.99,,,-99.99,,2013-08-04 04:32:00,
2013-08-03 21:42:00,63.0,53.0,29.78,NNW,329,2.0,4.0,70,-99.99,,,-99.99,,2013-08-04 04:42:00,
2013-08-03 21:52:00,63.0,55.0,29.79,NNW,329,2.0,3.0,75,-99.99,,,-99.99,,2013-08-04 04:52:00,
2013-08-03 22:02:00,63.0,55.0,29.79,NNW,329,2.0,3.0,75,-99.99,,,-99.99,,2013-08-04 05:02:00,
2013-08-03 22:12:00,63.0,54.0,29.80,NNW,329,3.0,5.0,74,-99.99,,,-99.99,,2013-08-04 05:12:00,
2013-08-03 22:22:00,63.0,53.0,29.79,NNW,329,4.0,5.0,72,-99.99,,,-99.99,,2013-08-04 05:22:00,
2013-08-03 22:32:00,63.0,53.0,29.79,NNW,329,4.0,5.0,72,-99.99,,,-99.99,,2013-08-04 05:32:00,
2013-08-03 22:42:00,61.0,53.0,29.79,NW,325,5.0,6.0,75,-99.99,,,-99.99,,2013-08-04 05:42:00,
2013-08-03 22:52:00,62.0,54.0,29.79,NW,315,1.0,7.0,75,-99.99,,,-99.99,,2013-08-04 05:52:00,
2013-08-03 23:01:00,62.0,54.0,29.79,NW,315,1.0,7.0,75,-99.99,,,-99.99,,2013-08-04 06:01:00,
2013-08-03 23:12:00,62.0,54.0,29.80,NW,315,0.0,7.0,77,-99.99,,,-99.99,,2013-08-04 06:12:00,
2013-08-03 23:22:00,61.0,54.0,29.80,NW,315,1.0,3.0,77,-99.99,,,-99.99,,2013-08-04 06:22:00,
2013-08-03 23:32:00,61.0,54.0,29.80,NW,315,1.0,3.0,77,-99.99,,,-99.99,,2013-08-04 06:32:00,
2013-08-03 23:43:00,61.0,54.0,29.79,NW,315,2.0,3.0,78,-99.99,,,-99.99,,2013-08-04 06:43:00,
2013-08-03 23:52:00,60.0,54.0,29.80,NW,315,2.0,3.0,79,-99.99,,,-99.99,,2013-08-04 06:52:00,